sensor_id;sensor_type;location;lat;lon;timestamp;P1;durP1;ratioP1;P2;durP2;ratioP2
40537;SDS011;27925;41.874;12.526;2023-08-30T00:00:43;20.52;;;4.80;;
40537;SDS011;27925;41.874;12.526;2023-08-30T00:06:01;16.98;;;4.75;;
40537;SDS011;27925;41.874;12.526;2023-08-30T00:08:29;18.17;;;4.65;;
40537;SDS011;27925;41.874;12.526;2023-08-30T00:10:55;20.17;;;4.93;;
40537;SDS011;27925;41.874;12.526;2023-08-30T00:13:23;14.23;;;4.55;;
40537;SDS011;27925;41.874;12.526;2023-08-30T00:15:50;14.90;;;4.50;;
40537;SDS011;27925;41.874;12.526;2023-08-30T00:18:16;17.23;;;4.63;;
40537;SDS011;27925;41.874;12.526;2023-08-30T00:20:44;15.93;;;4.38;;
40537;SDS011;27925;41.874;12.526;2023-08-30T00:23:10;14.40;;;4.00;;
40537;SDS011;27925;41.874;12.526;2023-08-30T00:25:35;18.48;;;4.38;;
40537;SDS011;27925;41.874;12.526;2023-08-30T00:28:01;15.80;;;4.82;;
40537;SDS011;27925;41.874;12.526;2023-08-30T00:30:27;16.67;;;3.95;;
40537;SDS011;27925;41.874;12.526;2023-08-30T00:32:52;17.70;;;4.75;;
40537;SDS011;27925;41.874;12.526;2023-08-30T00:35:18;16.33;;;4.05;;
40537;SDS011;27925;41.874;12.526;2023-08-30T00:37:44;12.40;;;3.65;;
40537;SDS011;27925;41.874;12.526;2023-08-30T00:40:10;16.92;;;4.07;;
40537;SDS011;27925;41.874;12.526;2023-08-30T00:42:36;16.92;;;4.25;;
40537;SDS011;27925;41.874;12.526;2023-08-30T00:45:02;15.85;;;4.20;;
40537;SDS011;27925;41.874;12.526;2023-08-30T00:47:28;16.60;;;4.35;;
40537;SDS011;27925;41.874;12.526;2023-08-30T00:49:54;15.77;;;4.28;;
40537;SDS011;27925;41.874;12.526;2023-08-30T00:52:20;14.35;;;4.53;;
40537;SDS011;27925;41.874;12.526;2023-08-30T00:54:45;17.27;;;4.85;;
40537;SDS011;27925;41.874;12.526;2023-08-30T00:57:12;17.27;;;4.70;;
40537;SDS011;27925;41.874;12.526;2023-08-30T00:59:37;20.25;;;4.47;;
40537;SDS011;27925;41.874;12.526;2023-08-30T01:02:04;18.80;;;4.15;;
40537;SDS011;27925;41.874;12.526;2023-08-30T01:04:30;16.77;;;4.20;;
40537;SDS011;27925;41.874;12.526;2023-08-30T01:06:56;12.95;;;4.05;;
40537;SDS011;27925;41.874;12.526;2023-08-30T01:09:23;17.73;;;4.40;;
40537;SDS011;27925;41.874;12.526;2023-08-30T01:17:22;19.55;;;4.50;;
40537;SDS011;27925;41.874;12.526;2023-08-30T01:19:57;14.55;;;4.80;;
40537;SDS011;27925;41.874;12.526;2023-08-30T01:25:06;14.48;;;4.32;;
40537;SDS011;27925;41.874;12.526;2023-08-30T01:27:34;17.98;;;4.28;;
40537;SDS011;27925;41.874;12.526;2023-08-30T01:30:02;21.20;;;4.60;;
40537;SDS011;27925;41.874;12.526;2023-08-30T01:32:31;17.88;;;4.85;;
40537;SDS011;27925;41.874;12.526;2023-08-30T01:34:59;16.85;;;4.38;;
40537;SDS011;27925;41.874;12.526;2023-08-30T01:37:26;15.63;;;5.38;;
40537;SDS011;27925;41.874;12.526;2023-08-30T01:39:53;17.25;;;4.60;;
40537;SDS011;27925;41.874;12.526;2023-08-30T01:42:22;19.77;;;5.28;;
40537;SDS011;27925;41.874;12.526;2023-08-30T01:44:52;20.15;;;4.72;;
40537;SDS011;27925;41.874;12.526;2023-08-30T01:47:22;15.35;;;4.45;;
40537;SDS011;27925;41.874;12.526;2023-08-30T01:49:50;14.23;;;3.78;;
40537;SDS011;27925;41.874;12.526;2023-08-30T01:52:17;16.55;;;4.65;;
40537;SDS011;27925;41.874;12.526;2023-08-30T01:54:44;17.58;;;4.50;;
40537;SDS011;27925;41.874;12.526;2023-08-30T01:57:11;18.92;;;5.30;;
40537;SDS011;27925;41.874;12.526;2023-08-30T01:59:37;18.75;;;5.35;;
40537;SDS011;27925;41.874;12.526;2023-08-30T02:02:03;22.63;;;5.05;;
40537;SDS011;27925;41.874;12.526;2023-08-30T02:04:29;15.70;;;5.28;;
40537;SDS011;27925;41.874;12.526;2023-08-30T02:09:28;13.55;;;3.38;;
40537;SDS011;27925;41.874;12.526;2023-08-30T02:12:04;15.30;;;3.92;;
40537;SDS011;27925;41.874;12.526;2023-08-30T02:14:32;15.32;;;3.78;;
40537;SDS011;27925;41.874;12.526;2023-08-30T02:16:59;14.43;;;3.15;;
40537;SDS011;27925;41.874;12.526;2023-08-30T02:19:25;15.05;;;3.85;;
40537;SDS011;27925;41.874;12.526;2023-08-30T02:21:51;16.27;;;3.30;;
40537;SDS011;27925;41.874;12.526;2023-08-30T02:24:16;13.43;;;3.60;;
40537;SDS011;27925;41.874;12.526;2023-08-30T02:26:42;15.07;;;3.88;;
40537;SDS011;27925;41.874;12.526;2023-08-30T02:29:08;22.15;;;3.97;;
40537;SDS011;27925;41.874;12.526;2023-08-30T02:31:35;9.90;;;3.30;;
40537;SDS011;27925;41.874;12.526;2023-08-30T02:34:00;14.02;;;3.55;;
40537;SDS011;27925;41.874;12.526;2023-08-30T02:36:27;12.88;;;3.40;;
40537;SDS011;27925;41.874;12.526;2023-08-30T02:38:53;15.43;;;3.75;;
40537;SDS011;27925;41.874;12.526;2023-08-30T02:41:18;11.10;;;3.25;;
40537;SDS011;27925;41.874;12.526;2023-08-30T02:43:44;20.25;;;4.20;;
40537;SDS011;27925;41.874;12.526;2023-08-30T02:46:10;12.15;;;3.35;;
40537;SDS011;27925;41.874;12.526;2023-08-30T02:48:35;20.63;;;4.05;;
40537;SDS011;27925;41.874;12.526;2023-08-30T02:51:01;12.10;;;3.00;;
40537;SDS011;27925;41.874;12.526;2023-08-30T02:53:27;13.20;;;2.95;;
40537;SDS011;27925;41.874;12.526;2023-08-30T02:55:52;17.15;;;3.72;;
40537;SDS011;27925;41.874;12.526;2023-08-30T02:58:20;15.63;;;3.58;;
40537;SDS011;27925;41.874;12.526;2023-08-30T03:00:46;11.15;;;2.85;;
40537;SDS011;27925;41.874;12.526;2023-08-30T03:03:12;12.90;;;3.25;;
40537;SDS011;27925;41.874;12.526;2023-08-30T03:05:37;13.38;;;3.22;;
40537;SDS011;27925;41.874;12.526;2023-08-30T03:08:03;15.48;;;3.45;;
40537;SDS011;27925;41.874;12.526;2023-08-30T03:10:29;13.98;;;3.05;;
40537;SDS011;27925;41.874;12.526;2023-08-30T03:12:55;18.05;;;3.55;;
40537;SDS011;27925;41.874;12.526;2023-08-30T03:15:20;15.68;;;3.03;;
40537;SDS011;27925;41.874;12.526;2023-08-30T03:17:46;18.02;;;3.40;;
40537;SDS011;27925;41.874;12.526;2023-08-30T03:20:12;13.00;;;3.45;;
40537;SDS011;27925;41.874;12.526;2023-08-30T03:22:37;17.40;;;4.00;;
40537;SDS011;27925;41.874;12.526;2023-08-30T03:25:03;14.90;;;3.30;;
40537;SDS011;27925;41.874;12.526;2023-08-30T03:27:29;10.73;;;3.38;;
40537;SDS011;27925;41.874;12.526;2023-08-30T03:29:55;12.13;;;3.40;;
40537;SDS011;27925;41.874;12.526;2023-08-30T03:32:21;15.43;;;3.55;;
40537;SDS011;27925;41.874;12.526;2023-08-30T03:34:47;13.32;;;3.42;;
40537;SDS011;27925;41.874;12.526;2023-08-30T03:37:16;15.85;;;3.70;;
40537;SDS011;27925;41.874;12.526;2023-08-30T03:39:42;15.32;;;3.28;;
40537;SDS011;27925;41.874;12.526;2023-08-30T03:42:08;20.55;;;4.35;;
40537;SDS011;27925;41.874;12.526;2023-08-30T03:44:34;13.10;;;4.10;;
40537;SDS011;27925;41.874;12.526;2023-08-30T03:47:00;12.93;;;3.67;;
40537;SDS011;27925;41.874;12.526;2023-08-30T03:49:26;14.07;;;3.65;;
40537;SDS011;27925;41.874;12.526;2023-08-30T03:51:51;17.85;;;4.32;;
40537;SDS011;27925;41.874;12.526;2023-08-30T03:54:17;15.52;;;3.65;;
40537;SDS011;27925;41.874;12.526;2023-08-30T03:56:43;17.42;;;3.50;;
40537;SDS011;27925;41.874;12.526;2023-08-30T03:59:09;9.80;;;2.85;;
40537;SDS011;27925;41.874;12.526;2023-08-30T04:01:36;15.27;;;3.58;;
40537;SDS011;27925;41.874;12.526;2023-08-30T04:04:02;16.80;;;3.38;;
40537;SDS011;27925;41.874;12.526;2023-08-30T04:06:27;12.55;;;3.55;;
40537;SDS011;27925;41.874;12.526;2023-08-30T04:08:53;18.23;;;3.67;;
40537;SDS011;27925;41.874;12.526;2023-08-30T04:11:19;13.20;;;3.55;;
40537;SDS011;27925;41.874;12.526;2023-08-30T04:13:44;16.58;;;3.88;;
40537;SDS011;27925;41.874;12.526;2023-08-30T04:16:10;15.70;;;3.70;;
40537;SDS011;27925;41.874;12.526;2023-08-30T04:18:36;13.70;;;3.97;;
40537;SDS011;27925;41.874;12.526;2023-08-30T04:21:01;14.50;;;3.45;;
40537;SDS011;27925;41.874;12.526;2023-08-30T04:23:28;13.77;;;3.28;;
40537;SDS011;27925;41.874;12.526;2023-08-30T04:25:54;15.93;;;3.70;;
40537;SDS011;27925;41.874;12.526;2023-08-30T04:28:20;15.88;;;3.42;;
40537;SDS011;27925;41.874;12.526;2023-08-30T04:30:46;16.75;;;4.07;;
40537;SDS011;27925;41.874;12.526;2023-08-30T04:33:12;13.30;;;3.45;;
40537;SDS011;27925;41.874;12.526;2023-08-30T04:35:38;15.70;;;3.72;;
40537;SDS011;27925;41.874;12.526;2023-08-30T04:38:04;14.27;;;3.63;;
40537;SDS011;27925;41.874;12.526;2023-08-30T04:40:30;13.65;;;3.60;;
40537;SDS011;27925;41.874;12.526;2023-08-30T04:43:00;13.30;;;3.63;;
40537;SDS011;27925;41.874;12.526;2023-08-30T04:45:26;12.43;;;3.60;;
40537;SDS011;27925;41.874;12.526;2023-08-30T04:47:52;16.83;;;4.28;;
40537;SDS011;27925;41.874;12.526;2023-08-30T04:50:18;12.45;;;3.60;;
40537;SDS011;27925;41.874;12.526;2023-08-30T04:52:44;17.13;;;3.92;;
40537;SDS011;27925;41.874;12.526;2023-08-30T04:55:09;16.38;;;3.65;;
40537;SDS011;27925;41.874;12.526;2023-08-30T04:57:35;11.20;;;2.88;;
40537;SDS011;27925;41.874;12.526;2023-08-30T05:00:01;12.00;;;3.03;;
40537;SDS011;27925;41.874;12.526;2023-08-30T05:02:30;9.95;;;3.25;;
40537;SDS011;27925;41.874;12.526;2023-08-30T05:04:55;12.02;;;2.95;;
40537;SDS011;27925;41.874;12.526;2023-08-30T05:07:21;14.40;;;3.55;;
40537;SDS011;27925;41.874;12.526;2023-08-30T05:09:47;10.23;;;2.63;;
40537;SDS011;27925;41.874;12.526;2023-08-30T05:12:13;16.63;;;3.13;;
40537;SDS011;27925;41.874;12.526;2023-08-30T05:14:38;12.82;;;3.22;;
40537;SDS011;27925;41.874;12.526;2023-08-30T05:17:06;18.52;;;4.10;;
40537;SDS011;27925;41.874;12.526;2023-08-30T05:19:32;12.32;;;3.45;;
40537;SDS011;27925;41.874;12.526;2023-08-30T05:21:58;13.25;;;3.28;;
40537;SDS011;27925;41.874;12.526;2023-08-30T05:24:23;11.40;;;3.15;;
40537;SDS011;27925;41.874;12.526;2023-08-30T05:26:51;15.57;;;3.53;;
40537;SDS011;27925;41.874;12.526;2023-08-30T05:29:17;13.73;;;3.22;;
40537;SDS011;27925;41.874;12.526;2023-08-30T05:31:43;11.30;;;3.13;;
40537;SDS011;27925;41.874;12.526;2023-08-30T05:34:12;17.67;;;3.88;;
40537;SDS011;27925;41.874;12.526;2023-08-30T05:36:37;18.75;;;3.85;;
40537;SDS011;27925;41.874;12.526;2023-08-30T05:39:03;14.32;;;3.20;;
40537;SDS011;27925;41.874;12.526;2023-08-30T05:41:29;13.82;;;3.20;;
40537;SDS011;27925;41.874;12.526;2023-08-30T05:43:55;14.65;;;3.53;;
40537;SDS011;27925;41.874;12.526;2023-08-30T05:46:21;13.60;;;3.58;;
40537;SDS011;27925;41.874;12.526;2023-08-30T05:48:46;15.60;;;3.38;;
40537;SDS011;27925;41.874;12.526;2023-08-30T05:51:12;14.38;;;3.58;;
40537;SDS011;27925;41.874;12.526;2023-08-30T05:53:38;14.23;;;3.47;;
40537;SDS011;27925;41.874;12.526;2023-08-30T05:56:07;14.90;;;2.97;;
40537;SDS011;27925;41.874;12.526;2023-08-30T05:58:32;13.07;;;3.22;;
40537;SDS011;27925;41.874;12.526;2023-08-30T06:00:58;12.95;;;3.97;;
40537;SDS011;27925;41.874;12.526;2023-08-30T06:03:25;16.05;;;3.35;;
